sensor_id;sensor_type;location;lat;lon;timestamp;P1;durP1;ratioP1;P2;durP2;ratioP2
18172;SDS011;9211;48.818;9.312;2022-08-01T00:02:00;2.63;;;1.77;;
18172;SDS011;9211;48.818;9.312;2022-08-01T00:04:27;2.75;;;1.90;;
18172;SDS011;9211;48.818;9.312;2022-08-01T00:06:54;3.75;;;1.90;;
18172;SDS011;9211;48.818;9.312;2022-08-01T00:09:21;2.40;;;1.80;;
18172;SDS011;9211;48.818;9.312;2022-08-01T00:11:48;4.43;;;1.85;;
18172;SDS011;9211;48.818;9.312;2022-08-01T00:14:17;2.77;;;1.77;;
18172;SDS011;9211;48.818;9.312;2022-08-01T00:16:44;2.95;;;1.95;;
18172;SDS011;9211;48.818;9.312;2022-08-01T00:19:12;4.68;;;1.83;;
18172;SDS011;9211;48.818;9.312;2022-08-01T00:21:39;3.38;;;1.85;;
18172;SDS011;9211;48.818;9.312;2022-08-01T00:24:06;5.38;;;1.90;;
18172;SDS011;9211;48.818;9.312;2022-08-01T00:26:33;2.80;;;1.90;;
18172;SDS011;9211;48.818;9.312;2022-08-01T00:29:00;5.10;;;2.00;;
18172;SDS011;9211;48.818;9.312;2022-08-01T00:31:28;2.50;;;1.70;;
18172;SDS011;9211;48.818;9.312;2022-08-01T00:33:55;3.00;;;1.98;;
18172;SDS011;9211;48.818;9.312;2022-08-01T00:36:22;3.60;;;1.98;;
18172;SDS011;9211;48.818;9.312;2022-08-01T00:38:49;3.42;;;1.90;;
18172;SDS011;9211;48.818;9.312;2022-08-01T00:41:16;4.57;;;2.00;;
18172;SDS011;9211;48.818;9.312;2022-08-01T00:43:44;3.90;;;1.80;;
18172;SDS011;9211;48.818;9.312;2022-08-01T00:46:11;3.40;;;2.13;;
18172;SDS011;9211;48.818;9.312;2022-08-01T00:48:39;3.58;;;2.00;;
18172;SDS011;9211;48.818;9.312;2022-08-01T00:51:06;3.15;;;1.83;;
18172;SDS011;9211;48.818;9.312;2022-08-01T00:53:34;2.63;;;1.80;;
18172;SDS011;9211;48.818;9.312;2022-08-01T00:56:01;6.10;;;2.10;;
18172;SDS011;9211;48.818;9.312;2022-08-01T00:58:29;3.38;;;1.75;;
18172;SDS011;9211;48.818;9.312;2022-08-01T01:00:57;2.75;;;1.95;;
18172;SDS011;9211;48.818;9.312;2022-08-01T01:03:24;3.53;;;2.20;;
18172;SDS011;9211;48.818;9.312;2022-08-01T01:05:55;3.20;;;2.10;;
18172;SDS011;9211;48.818;9.312;2022-08-01T01:08:30;3.17;;;2.03;;
18172;SDS011;9211;48.818;9.312;2022-08-01T01:11:05;2.80;;;1.70;;
18172;SDS011;9211;48.818;9.312;2022-08-01T01:13:37;3.83;;;2.13;;
18172;SDS011;9211;48.818;9.312;2022-08-01T01:16:10;3.97;;;2.05;;
18172;SDS011;9211;48.818;9.312;2022-08-01T01:18:41;3.42;;;1.70;;
18172;SDS011;9211;48.818;9.312;2022-08-01T01:24:13;3.35;;;2.00;;
18172;SDS011;9211;48.818;9.312;2022-08-01T01:26:51;4.30;;;1.90;;
18172;SDS011;9211;48.818;9.312;2022-08-01T01:29:25;3.90;;;1.92;;
18172;SDS011;9211;48.818;9.312;2022-08-01T01:31:57;2.45;;;1.90;;
18172;SDS011;9211;48.818;9.312;2022-08-01T01:34:29;3.38;;;2.05;;
18172;SDS011;9211;48.818;9.312;2022-08-01T01:37:02;3.80;;;2.10;;
18172;SDS011;9211;48.818;9.312;2022-08-01T01:39:34;3.90;;;2.10;;
18172;SDS011;9211;48.818;9.312;2022-08-01T01:42:03;3.70;;;2.37;;
18172;SDS011;9211;48.818;9.312;2022-08-01T01:44:33;3.85;;;2.10;;
18172;SDS011;9211;48.818;9.312;2022-08-01T01:47:01;4.88;;;2.20;;
18172;SDS011;9211;48.818;9.312;2022-08-01T01:49:29;3.33;;;2.03;;
18172;SDS011;9211;48.818;9.312;2022-08-01T01:51:58;5.13;;;2.00;;
18172;SDS011;9211;48.818;9.312;2022-08-01T01:54:28;2.83;;;2.10;;
18172;SDS011;9211;48.818;9.312;2022-08-01T01:56:58;5.80;;;2.00;;
18172;SDS011;9211;48.818;9.312;2022-08-01T01:59:28;3.40;;;2.05;;
18172;SDS011;9211;48.818;9.312;2022-08-01T02:01:59;3.80;;;2.20;;
18172;SDS011;9211;48.818;9.312;2022-08-01T02:04:29;3.97;;;2.10;;
18172;SDS011;9211;48.818;9.312;2022-08-01T02:06:57;2.85;;;2.00;;
18172;SDS011;9211;48.818;9.312;2022-08-01T02:09:26;2.40;;;1.95;;
18172;SDS011;9211;48.818;9.312;2022-08-01T02:11:55;4.15;;;2.00;;
18172;SDS011;9211;48.818;9.312;2022-08-01T02:14:23;3.20;;;2.20;;
18172;SDS011;9211;48.818;9.312;2022-08-01T02:16:53;2.30;;;2.00;;
18172;SDS011;9211;48.818;9.312;2022-08-01T02:19:25;3.37;;;2.20;;
18172;SDS011;9211;48.818;9.312;2022-08-01T02:21:55;2.90;;;2.00;;
18172;SDS011;9211;48.818;9.312;2022-08-01T02:24:29;2.72;;;2.00;;
18172;SDS011;9211;48.818;9.312;2022-08-01T02:27:03;2.97;;;2.03;;
18172;SDS011;9211;48.818;9.312;2022-08-01T02:29:36;2.72;;;2.08;;
18172;SDS011;9211;48.818;9.312;2022-08-01T02:32:07;4.47;;;2.25;;
18172;SDS011;9211;48.818;9.312;2022-08-01T02:34:39;3.33;;;2.30;;
18172;SDS011;9211;48.818;9.312;2022-08-01T02:37:08;2.92;;;2.00;;
18172;SDS011;9211;48.818;9.312;2022-08-01T02:39:36;4.90;;;2.27;;
18172;SDS011;9211;48.818;9.312;2022-08-01T02:42:05;3.40;;;2.28;;
18172;SDS011;9211;48.818;9.312;2022-08-01T02:44:35;3.38;;;2.20;;
18172;SDS011;9211;48.818;9.312;2022-08-01T02:47:04;3.95;;;2.30;;
18172;SDS011;9211;48.818;9.312;2022-08-01T02:49:33;3.67;;;2.05;;
18172;SDS011;9211;48.818;9.312;2022-08-01T02:52:05;3.88;;;2.28;;
18172;SDS011;9211;48.818;9.312;2022-08-01T02:54:34;3.40;;;2.20;;
18172;SDS011;9211;48.818;9.312;2022-08-01T02:57:03;3.45;;;2.05;;
18172;SDS011;9211;48.818;9.312;2022-08-01T02:59:32;3.33;;;2.15;;
18172;SDS011;9211;48.818;9.312;2022-08-01T03:02:03;3.17;;;2.10;;
18172;SDS011;9211;48.818;9.312;2022-08-01T03:04:32;2.60;;;2.00;;
18172;SDS011;9211;48.818;9.312;2022-08-01T03:07:02;3.40;;;2.05;;
18172;SDS011;9211;48.818;9.312;2022-08-01T03:09:33;2.90;;;2.10;;
18172;SDS011;9211;48.818;9.312;2022-08-01T03:12:03;3.23;;;2.40;;
18172;SDS011;9211;48.818;9.312;2022-08-01T03:14:33;3.15;;;2.47;;
18172;SDS011;9211;48.818;9.312;2022-08-01T03:17:05;3.67;;;2.10;;
18172;SDS011;9211;48.818;9.312;2022-08-01T03:19:33;3.03;;;2.10;;
18172;SDS011;9211;48.818;9.312;2022-08-01T03:22:02;4.35;;;2.20;;
18172;SDS011;9211;48.818;9.312;2022-08-01T03:24:42;4.55;;;2.30;;
18172;SDS011;9211;48.818;9.312;2022-08-01T03:27:10;3.88;;;2.30;;
18172;SDS011;9211;48.818;9.312;2022-08-01T03:29:38;4.95;;;2.20;;
18172;SDS011;9211;48.818;9.312;2022-08-01T03:32:07;3.00;;;2.00;;
18172;SDS011;9211;48.818;9.312;2022-08-01T03:34:36;4.35;;;2.15;;
18172;SDS011;9211;48.818;9.312;2022-08-01T03:37:04;3.33;;;2.00;;
18172;SDS011;9211;48.818;9.312;2022-08-01T03:39:38;3.88;;;2.13;;
18172;SDS011;9211;48.818;9.312;2022-08-01T03:42:12;2.83;;;2.10;;
18172;SDS011;9211;48.818;9.312;2022-08-01T03:44:42;4.00;;;2.00;;
18172;SDS011;9211;48.818;9.312;2022-08-01T03:47:15;4.70;;;2.30;;
18172;SDS011;9211;48.818;9.312;2022-08-01T03:49:44;3.25;;;2.17;;
18172;SDS011;9211;48.818;9.312;2022-08-01T03:52:14;3.30;;;2.10;;
18172;SDS011;9211;48.818;9.312;2022-08-01T03:54:43;3.13;;;2.10;;
18172;SDS011;9211;48.818;9.312;2022-08-01T03:57:13;3.25;;;2.15;;
18172;SDS011;9211;48.818;9.312;2022-08-01T03:59:41;3.80;;;2.17;;
18172;SDS011;9211;48.818;9.312;2022-08-01T04:02:09;2.75;;;2.10;;
18172;SDS011;9211;48.818;9.312;2022-08-01T04:04:38;3.38;;;2.10;;
18172;SDS011;9211;48.818;9.312;2022-08-01T04:09:51;4.77;;;2.20;;
18172;SDS011;9211;48.818;9.312;2022-08-01T04:12:18;3.63;;;2.00;;
18172;SDS011;9211;48.818;9.312;2022-08-01T04:14:46;4.32;;;2.08;;
18172;SDS011;9211;48.818;9.312;2022-08-01T04:17:14;3.90;;;2.00;;
18172;SDS011;9211;48.818;9.312;2022-08-01T04:19:41;5.40;;;2.17;;
18172;SDS011;9211;48.818;9.312;2022-08-01T04:22:09;4.00;;;1.98;;
18172;SDS011;9211;48.818;9.312;2022-08-01T04:24:38;5.18;;;2.40;;
18172;SDS011;9211;48.818;9.312;2022-08-01T04:27:08;3.67;;;2.30;;
18172;SDS011;9211;48.818;9.312;2022-08-01T04:29:39;5.82;;;2.67;;
18172;SDS011;9211;48.818;9.312;2022-08-01T04:32:07;4.70;;;2.50;;
18172;SDS011;9211;48.818;9.312;2022-08-01T04:34:37;4.33;;;2.50;;
18172;SDS011;9211;48.818;9.312;2022-08-01T04:37:06;7.35;;;2.70;;
18172;SDS011;9211;48.818;9.312;2022-08-01T04:39:35;6.35;;;2.72;;
18172;SDS011;9211;48.818;9.312;2022-08-01T04:42:06;4.50;;;2.70;;
18172;SDS011;9211;48.818;9.312;2022-08-01T04:44:36;6.95;;;2.60;;
18172;SDS011;9211;48.818;9.312;2022-08-01T04:47:04;5.30;;;2.70;;
18172;SDS011;9211;48.818;9.312;2022-08-01T04:49:33;5.43;;;2.65;;
18172;SDS011;9211;48.818;9.312;2022-08-01T04:52:00;5.00;;;2.93;;
18172;SDS011;9211;48.818;9.312;2022-08-01T04:54:32;4.90;;;2.67;;
18172;SDS011;9211;48.818;9.312;2022-08-01T04:57:05;6.60;;;2.78;;
18172;SDS011;9211;48.818;9.312;2022-08-01T04:59:33;5.28;;;2.83;;
18172;SDS011;9211;48.818;9.312;2022-08-01T05:02:06;4.00;;;2.40;;
18172;SDS011;9211;48.818;9.312;2022-08-01T05:04:33;7.43;;;2.63;;
18172;SDS011;9211;48.818;9.312;2022-08-01T05:07:01;3.93;;;2.57;;
18172;SDS011;9211;48.818;9.312;2022-08-01T05:09:29;3.90;;;2.50;;
18172;SDS011;9211;48.818;9.312;2022-08-01T05:11:57;5.63;;;2.70;;
18172;SDS011;9211;48.818;9.312;2022-08-01T05:14:26;6.70;;;2.60;;
18172;SDS011;9211;48.818;9.312;2022-08-01T05:16:53;4.50;;;2.80;;
18172;SDS011;9211;48.818;9.312;2022-08-01T05:19:20;5.00;;;2.97;;
18172;SDS011;9211;48.818;9.312;2022-08-01T05:21:47;7.32;;;3.05;;
18172;SDS011;9211;48.818;9.312;2022-08-01T05:24:14;5.47;;;2.85;;
18172;SDS011;9211;48.818;9.312;2022-08-01T05:26:41;6.95;;;2.85;;
18172;SDS011;9211;48.818;9.312;2022-08-01T05:29:08;5.63;;;2.93;;
18172;SDS011;9211;48.818;9.312;2022-08-01T05:31:37;6.55;;;2.90;;
18172;SDS011;9211;48.818;9.312;2022-08-01T05:34:04;5.07;;;2.80;;
18172;SDS011;9211;48.818;9.312;2022-08-01T05:36:31;3.97;;;2.55;;
18172;SDS011;9211;48.818;9.312;2022-08-01T05:38:58;7.30;;;2.80;;
18172;SDS011;9211;48.818;9.312;2022-08-01T05:41:26;7.53;;;2.80;;
18172;SDS011;9211;48.818;9.312;2022-08-01T05:43:53;5.75;;;2.70;;
18172;SDS011;9211;48.818;9.312;2022-08-01T05:46:20;5.87;;;2.73;;
18172;SDS011;9211;48.818;9.312;2022-08-01T05:48:48;5.20;;;2.70;;
18172;SDS011;9211;48.818;9.312;2022-08-01T05:51:15;4.90;;;2.58;;
18172;SDS011;9211;48.818;9.312;2022-08-01T05:53:42;4.00;;;2.50;;
18172;SDS011;9211;48.818;9.312;2022-08-01T05:56:09;4.32;;;2.10;;
18172;SDS011;9211;48.818;9.312;2022-08-01T05:58:36;4.47;;;1.92;;
18172;SDS011;9211;48.818;9.312;2022-08-01T06:01:03;4.10;;;1.85;;
18172;SDS011;9211;48.818;9.312;2022-08-01T06:03:30;2.50;;;1.60;;
18172;SDS011;9211;48.818;9.312;2022-08-01T06:05:59;3.10;;;1.60;;
18172;SDS011;9211;48.818;9.312;2022-08-01T06:08:27;4.45;;;1.77;;
18172;SDS011;9211;48.818;9.312;2022-08-01T06:10:54;3.05;;;1.60;;
18172;SDS011;9211;48.818;9.312;2022-08-01T06:13:21;4.10;;;1.70;;
18172;SDS011;9211;48.818;9.312;2022-08-01T06:15:48;2.73;;;1.67;;
18172;SDS011;9211;48.818;9.312;2022-08-01T06:18:16;2.93;;;1.50;;
18172;SDS011;9211;48.818;9.312;2022-08-01T06:20:43;2.53;;;1.45;;
18172;SDS011;9211;48.818;9.312;2022-08-01T06:23:12;2.78;;;1.33;;
18172;SDS011;9211;48.818;9.312;2022-08-01T06:25:41;2.40;;;1.50;;
18172;SDS011;9211;48.818;9.312;2022-08-01T06:28:08;2.45;;;1.40;;
18172;SDS011;9211;48.818;9.312;2022-08-01T06:30:36;2.37;;;1.27;;
18172;SDS011;9211;48.818;9.312;2022-08-01T06:33:03;1.87;;;1.10;;
18172;SDS011;9211;48.818;9.312;2022-08-01T06:35:30;1.88;;;1.10;;
18172;SDS011;9211;48.818;9.312;2022-08-01T06:37:59;1.52;;;1.00;;
18172;SDS011;9211;48.818;9.312;2022-08-01T06:40:27;2.05;;;1.23;;
18172;SDS011;9211;48.818;9.312;2022-08-01T06:42:54;3.05;;;1.17;;
18172;SDS011;9211;48.818;9.312;2022-08-01T06:45:21;1.50;;;1.20;;
18172;SDS011;9211;48.818;9.312;2022-08-01T06:47:49;1.90;;;1.13;;
18172;SDS011;9211;48.818;9.312;2022-08-01T06:50:16;2.88;;;1.25;;
18172;SDS011;9211;48.818;9.312;2022-08-01T06:52:44;2.28;;;1.15;;
18172;SDS011;9211;48.818;9.312;2022-08-01T06:55:11;1.58;;;1.00;;
18172;SDS011;9211;48.818;9.312;2022-08-01T06:57:46;1.75;;;1.10;;
18172;SDS011;9211;48.818;9.312;2022-08-01T07:00:14;3.08;;;1.10;;
18172;SDS011;9211;48.818;9.312;2022-08-01T07:02:43;2.28;;;1.20;;
18172;SDS011;9211;48.818;9.312;2022-08-01T07:05:11;2.37;;;1.10;;
18172;SDS011;9211;48.818;9.312;2022-08-01T07:07:38;2.70;;;1.00;;
18172;SDS011;9211;48.818;9.312;2022-08-01T07:10:06;1.85;;;1.23;;
18172;SDS011;9211;48.818;9.312;2022-08-01T07:12:34;3.50;;;1.10;;
18172;SDS011;9211;48.818;9.312;2022-08-01T07:15:04;2.23;;;1.20;;
18172;SDS011;9211;48.818;9.312;2022-08-01T07:17:35;2.13;;;1.23;;
18172;SDS011;9211;48.818;9.312;2022-08-01T07:20:03;2.20;;;1.10;;
18172;SDS011;9211;48.818;9.312;2022-08-01T07:22:32;2.67;;;1.30;;
18172;SDS011;9211;48.818;9.312;2022-08-01T07:24:59;2.25;;;1.30;;
18172;SDS011;9211;48.818;9.312;2022-08-01T07:27:26;1.95;;;1.10;;
18172;SDS011;9211;48.818;9.312;2022-08-01T07:29:53;1.38;;;1.20;;
18172;SDS011;9211;48.818;9.312;2022-08-01T07:32:21;1.58;;;1.10;;
18172;SDS011;9211;48.818;9.312;2022-08-01T07:34:48;2.47;;;1.13;;
18172;SDS011;9211;48.818;9.312;2022-08-01T07:37:16;2.65;;;1.10;;
18172;SDS011;9211;48.818;9.312;2022-08-01T07:39:43;2.53;;;1.17;;
18172;SDS011;9211;48.818;9.312;2022-08-01T07:42:10;2.08;;;1.15;;
18172;SDS011;9211;48.818;9.312;2022-08-01T07:44:37;2.50;;;1.13;;
18172;SDS011;9211;48.818;9.312;2022-08-01T07:47:04;2.22;;;1.10;;
18172;SDS011;9211;48.818;9.312;2022-08-01T07:49:33;1.90;;;1.25;;
18172;SDS011;9211;48.818;9.312;2022-08-01T07:52:00;3.10;;;1.10;;
18172;SDS011;9211;48.818;9.312;2022-08-01T07:54:28;2.65;;;1.30;;
18172;SDS011;9211;48.818;9.312;2022-08-01T07:56:55;1.90;;;1.25;;
18172;SDS011;9211;48.818;9.312;2022-08-01T07:59:22;2.80;;;1.30;;
18172;SDS011;9211;48.818;9.312;2022-08-01T08:01:49;2.13;;;1.23;;
18172;SDS011;9211;48.818;9.312;2022-08-01T08:04:16;1.73;;;1.10;;
18172;SDS011;9211;48.818;9.312;2022-08-01T08:06:45;2.58;;;1.30;;
18172;SDS011;9211;48.818;9.312;2022-08-01T08:09:14;3.73;;;1.30;;
18172;SDS011;9211;48.818;9.312;2022-08-01T08:11:41;2.17;;;1.30;;
18172;SDS011;9211;48.818;9.312;2022-08-01T08:14:09;2.53;;;1.50;;
18172;SDS011;9211;48.818;9.312;2022-08-01T08:16:36;3.93;;;1.40;;
18172;SDS011;9211;48.818;9.312;2022-08-01T08:19:04;3.47;;;1.40;;
18172;SDS011;9211;48.818;9.312;2022-08-01T08:21:31;3.28;;;1.48;;
18172;SDS011;9211;48.818;9.312;2022-08-01T08:23:59;1.38;;;1.20;;
18172;SDS011;9211;48.818;9.312;2022-08-01T08:26:44;3.03;;;1.40;;
18172;SDS011;9211;48.818;9.312;2022-08-01T08:29:11;1.67;;;1.40;;
18172;SDS011;9211;48.818;9.312;2022-08-01T08:31:39;1.77;;;1.20;;
18172;SDS011;9211;48.818;9.312;2022-08-01T08:34:06;4.00;;;1.57;;
18172;SDS011;9211;48.818;9.312;2022-08-01T08:36:33;2.38;;;1.45;;
18172;SDS011;9211;48.818;9.312;2022-08-01T08:39:02;3.35;;;1.73;;
18172;SDS011;9211;48.818;9.312;2022-08-01T08:41:29;2.80;;;1.73;;
18172;SDS011;9211;48.818;9.312;2022-08-01T08:43:57;2.70;;;1.80;;
18172;SDS011;9211;48.818;9.312;2022-08-01T08:46:25;3.22;;;1.90;;
18172;SDS011;9211;48.818;9.312;2022-08-01T08:48:54;2.78;;;1.50;;
18172;SDS011;9211;48.818;9.312;2022-08-01T08:51:23;2.80;;;1.40;;
18172;SDS011;9211;48.818;9.312;2022-08-01T08:53:52;3.47;;;1.50;;
18172;SDS011;9211;48.818;9.312;2022-08-01T08:56:23;2.80;;;1.40;;
18172;SDS011;9211;48.818;9.312;2022-08-01T08:58:51;3.67;;;1.40;;
18172;SDS011;9211;48.818;9.312;2022-08-01T09:01:18;4.00;;;1.67;;
18172;SDS011;9211;48.818;9.312;2022-08-01T09:03:46;2.70;;;1.58;;
18172;SDS011;9211;48.818;9.312;2022-08-01T09:06:14;3.47;;;1.58;;
18172;SDS011;9211;48.818;9.312;2022-08-01T09:08:42;3.40;;;1.50;;
18172;SDS011;9211;48.818;9.312;2022-08-01T09:11:09;1.80;;;1.23;;
18172;SDS011;9211;48.818;9.312;2022-08-01T09:13:38;3.40;;;1.40;;
18172;SDS011;9211;48.818;9.312;2022-08-01T09:16:05;3.03;;;1.60;;
18172;SDS011;9211;48.818;9.312;2022-08-01T09:18:32;3.30;;;1.70;;
18172;SDS011;9211;48.818;9.312;2022-08-01T09:21:11;3.50;;;1.80;;
18172;SDS011;9211;48.818;9.312;2022-08-01T09:23:41;2.97;;;1.70;;
18172;SDS011;9211;48.818;9.312;2022-08-01T09:26:11;3.45;;;1.70;;
18172;SDS011;9211;48.818;9.312;2022-08-01T09:28:42;2.72;;;1.73;;
18172;SDS011;9211;48.818;9.312;2022-08-01T09:31:11;3.13;;;1.63;;
18172;SDS011;9211;48.818;9.312;2022-08-01T09:33:48;2.90;;;1.60;;
18172;SDS011;9211;48.818;9.312;2022-08-01T09:36:17;2.85;;;1.70;;
18172;SDS011;9211;48.818;9.312;2022-08-01T09:38:44;3.50;;;1.85;;
18172;SDS011;9211;48.818;9.312;2022-08-01T09:41:12;3.10;;;1.60;;
18172;SDS011;9211;48.818;9.312;2022-08-01T09:43:39;4.65;;;2.00;;
18172;SDS011;9211;48.818;9.312;2022-08-01T09:46:10;4.45;;;2.30;;
18172;SDS011;9211;48.818;9.312;2022-08-01T09:48:37;3.10;;;1.97;;
18172;SDS011;9211;48.818;9.312;2022-08-01T09:51:05;3.22;;;1.90;;
18172;SDS011;9211;48.818;9.312;2022-08-01T09:53:40;2.83;;;2.10;;
18172;SDS011;9211;48.818;9.312;2022-08-01T09:56:09;4.55;;;2.55;;
18172;SDS011;9211;48.818;9.312;2022-08-01T09:58:48;5.80;;;2.50;;
18172;SDS011;9211;48.818;9.312;2022-08-01T10:01:21;5.40;;;2.30;;
18172;SDS011;9211;48.818;9.312;2022-08-01T10:06:32;4.43;;;2.58;;
18172;SDS011;9211;48.818;9.312;2022-08-01T10:08:59;4.20;;;2.60;;
18172;SDS011;9211;48.818;9.312;2022-08-01T10:11:26;4.88;;;2.78;;
18172;SDS011;9211;48.818;9.312;2022-08-01T10:13:54;5.70;;;3.30;;
18172;SDS011;9211;48.818;9.312;2022-08-01T10:16:24;3.83;;;3.00;;
18172;SDS011;9211;48.818;9.312;2022-08-01T10:18:54;3.72;;;2.72;;
18172;SDS011;9211;48.818;9.312;2022-08-01T10:21:22;4.65;;;3.20;;
18172;SDS011;9211;48.818;9.312;2022-08-01T10:23:52;6.32;;;3.63;;
18172;SDS011;9211;48.818;9.312;2022-08-01T10:26:21;5.50;;;2.90;;
18172;SDS011;9211;48.818;9.312;2022-08-01T10:28:52;5.28;;;2.72;;
18172;SDS011;9211;48.818;9.312;2022-08-01T10:31:21;3.67;;;2.72;;
18172;SDS011;9211;48.818;9.312;2022-08-01T10:33:50;5.15;;;2.60;;
18172;SDS011;9211;48.818;9.312;2022-08-01T10:36:18;3.75;;;2.80;;
18172;SDS011;9211;48.818;9.312;2022-08-01T10:38:46;5.28;;;2.55;;
18172;SDS011;9211;48.818;9.312;2022-08-01T10:41:14;4.00;;;2.70;;
18172;SDS011;9211;48.818;9.312;2022-08-01T10:43:42;3.28;;;2.38;;
18172;SDS011;9211;48.818;9.312;2022-08-01T10:46:09;4.60;;;2.43;;
18172;SDS011;9211;48.818;9.312;2022-08-01T10:48:41;3.17;;;2.17;;
18172;SDS011;9211;48.818;9.312;2022-08-01T10:51:13;3.92;;;2.20;;
18172;SDS011;9211;48.818;9.312;2022-08-01T10:53:45;3.35;;;2.30;;
18172;SDS011;9211;48.818;9.312;2022-08-01T10:56:13;3.20;;;2.40;;
18172;SDS011;9211;48.818;9.312;2022-08-01T10:58:43;3.25;;;2.40;;
18172;SDS011;9211;48.818;9.312;2022-08-01T11:01:15;2.95;;;2.22;;
18172;SDS011;9211;48.818;9.312;2022-08-01T11:04:02;5.20;;;2.70;;
18172;SDS011;9211;48.818;9.312;2022-08-01T11:06:36;3.50;;;2.50;;
18172;SDS011;9211;48.818;9.312;2022-08-01T11:12:01;2.92;;;2.25;;
18172;SDS011;9211;48.818;9.312;2022-08-01T11:14:31;4.90;;;2.47;;
18172;SDS011;9211;48.818;9.312;2022-08-01T11:20:07;4.13;;;2.38;;
18172;SDS011;9211;48.818;9.312;2022-08-01T11:28:38;3.38;;;2.10;;
18172;SDS011;9211;48.818;9.312;2022-08-01T11:33:56;3.03;;;2.20;;
18172;SDS011;9211;48.818;9.312;2022-08-01T11:36:25;2.03;;;1.80;;
18172;SDS011;9211;48.818;9.312;2022-08-01T11:39:12;3.42;;;2.00;;
18172;SDS011;9211;48.818;9.312;2022-08-01T11:41:41;2.22;;;1.80;;
18172;SDS011;9211;48.818;9.312;2022-08-01T11:44:09;3.27;;;1.80;;
18172;SDS011;9211;48.818;9.312;2022-08-01T11:46:45;3.25;;;1.77;;
18172;SDS011;9211;48.818;9.312;2022-08-01T11:49:33;3.57;;;1.80;;
18172;SDS011;9211;48.818;9.312;2022-08-01T11:52:13;2.58;;;1.90;;
18172;SDS011;9211;48.818;9.312;2022-08-01T11:54:42;4.05;;;1.63;;
18172;SDS011;9211;48.818;9.312;2022-08-01T11:57:10;4.72;;;1.85;;
18172;SDS011;9211;48.818;9.312;2022-08-01T11:59:45;3.63;;;1.83;;
18172;SDS011;9211;48.818;9.312;2022-08-01T12:02:23;3.13;;;1.80;;
18172;SDS011;9211;48.818;9.312;2022-08-01T12:04:54;2.78;;;1.55;;
18172;SDS011;9211;48.818;9.312;2022-08-01T12:07:23;2.90;;;1.60;;
18172;SDS011;9211;48.818;9.312;2022-08-01T12:09:59;2.55;;;1.80;;
18172;SDS011;9211;48.818;9.312;2022-08-01T12:12:27;2.47;;;1.67;;
18172;SDS011;9211;48.818;9.312;2022-08-01T12:14:56;2.40;;;1.90;;
18172;SDS011;9211;48.818;9.312;2022-08-01T12:17:34;3.05;;;2.10;;
18172;SDS011;9211;48.818;9.312;2022-08-01T12:20:02;2.65;;;1.83;;
18172;SDS011;9211;48.818;9.312;2022-08-01T12:22:33;3.58;;;1.90;;
18172;SDS011;9211;48.818;9.312;2022-08-01T12:25:06;2.10;;;1.80;;
18172;SDS011;9211;48.818;9.312;2022-08-01T12:27:34;2.78;;;1.77;;
18172;SDS011;9211;48.818;9.312;2022-08-01T12:30:05;2.20;;;1.60;;
18172;SDS011;9211;48.818;9.312;2022-08-01T12:32:34;4.80;;;1.80;;
18172;SDS011;9211;48.818;9.312;2022-08-01T12:35:03;2.88;;;1.77;;
18172;SDS011;9211;48.818;9.312;2022-08-01T12:37:33;3.53;;;1.70;;
18172;SDS011;9211;48.818;9.312;2022-08-01T12:40:02;3.10;;;1.90;;
18172;SDS011;9211;48.818;9.312;2022-08-01T12:42:36;2.45;;;1.52;;
18172;SDS011;9211;48.818;9.312;2022-08-01T12:45:04;3.20;;;1.42;;
18172;SDS011;9211;48.818;9.312;2022-08-01T12:47:34;2.50;;;1.60;;
18172;SDS011;9211;48.818;9.312;2022-08-01T12:50:02;3.95;;;1.70;;
18172;SDS011;9211;48.818;9.312;2022-08-01T12:52:31;2.28;;;1.70;;
18172;SDS011;9211;48.818;9.312;2022-08-01T12:55:04;4.20;;;1.55;;
18172;SDS011;9211;48.818;9.312;2022-08-01T12:57:34;2.10;;;1.50;;
18172;SDS011;9211;48.818;9.312;2022-08-01T13:00:06;2.25;;;1.60;;
18172;SDS011;9211;48.818;9.312;2022-08-01T13:02:35;2.58;;;1.70;;
18172;SDS011;9211;48.818;9.312;2022-08-01T13:05:03;2.13;;;1.60;;
18172;SDS011;9211;48.818;9.312;2022-08-01T13:07:39;3.78;;;1.90;;
18172;SDS011;9211;48.818;9.312;2022-08-01T13:10:08;4.05;;;1.50;;
18172;SDS011;9211;48.818;9.312;2022-08-01T13:12:36;4.80;;;1.58;;
18172;SDS011;9211;48.818;9.312;2022-08-01T13:15:17;2.80;;;1.80;;
18172;SDS011;9211;48.818;9.312;2022-08-01T13:17:49;4.32;;;1.65;;
18172;SDS011;9211;48.818;9.312;2022-08-01T13:20:23;2.58;;;1.67;;
18172;SDS011;9211;48.818;9.312;2022-08-01T13:22:53;2.43;;;1.43;;
18172;SDS011;9211;48.818;9.312;2022-08-01T13:25:21;3.45;;;1.70;;
18172;SDS011;9211;48.818;9.312;2022-08-01T13:27:48;2.17;;;1.58;;
18172;SDS011;9211;48.818;9.312;2022-08-01T13:30:16;2.83;;;1.60;;
18172;SDS011;9211;48.818;9.312;2022-08-01T13:32:43;2.38;;;1.50;;
18172;SDS011;9211;48.818;9.312;2022-08-01T13:35:23;2.37;;;1.40;;
18172;SDS011;9211;48.818;9.312;2022-08-01T13:37:50;3.95;;;1.40;;
18172;SDS011;9211;48.818;9.312;2022-08-01T13:40:24;1.80;;;1.45;;
18172;SDS011;9211;48.818;9.312;2022-08-01T13:42:52;2.38;;;1.60;;
18172;SDS011;9211;48.818;9.312;2022-08-01T13:45:22;2.75;;;1.50;;
18172;SDS011;9211;48.818;9.312;2022-08-01T13:47:49;2.28;;;1.40;;
18172;SDS011;9211;48.818;9.312;2022-08-01T13:50:16;2.45;;;1.55;;
18172;SDS011;9211;48.818;9.312;2022-08-01T13:52:43;1.95;;;1.50;;
18172;SDS011;9211;48.818;9.312;2022-08-01T13:55:10;3.50;;;1.60;;
18172;SDS011;9211;48.818;9.312;2022-08-01T13:57:39;2.75;;;1.50;;
18172;SDS011;9211;48.818;9.312;2022-08-01T14:00:07;4.70;;;1.60;;
18172;SDS011;9211;48.818;9.312;2022-08-01T14:02:38;2.83;;;1.50;;
18172;SDS011;9211;48.818;9.312;2022-08-01T14:05:06;2.45;;;1.38;;
18172;SDS011;9211;48.818;9.312;2022-08-01T14:07:33;2.55;;;1.35;;
18172;SDS011;9211;48.818;9.312;2022-08-01T14:10:00;3.42;;;1.40;;
18172;SDS011;9211;48.818;9.312;2022-08-01T14:12:28;1.42;;;1.20;;
18172;SDS011;9211;48.818;9.312;2022-08-01T14:14:56;3.20;;;1.30;;
18172;SDS011;9211;48.818;9.312;2022-08-01T14:17:24;3.80;;;1.60;;
18172;SDS011;9211;48.818;9.312;2022-08-01T14:19:51;4.72;;;1.58;;
18172;SDS011;9211;48.818;9.312;2022-08-01T14:22:18;3.10;;;1.20;;
18172;SDS011;9211;48.818;9.312;2022-08-01T14:24:47;3.72;;;1.40;;
18172;SDS011;9211;48.818;9.312;2022-08-01T14:27:14;3.08;;;1.30;;
18172;SDS011;9211;48.818;9.312;2022-08-01T14:29:41;1.70;;;1.30;;
18172;SDS011;9211;48.818;9.312;2022-08-01T14:32:13;3.00;;;1.45;;
18172;SDS011;9211;48.818;9.312;2022-08-01T14:34:40;2.80;;;1.50;;
18172;SDS011;9211;48.818;9.312;2022-08-01T14:37:07;2.88;;;1.50;;
18172;SDS011;9211;48.818;9.312;2022-08-01T14:39:34;3.50;;;1.40;;
18172;SDS011;9211;48.818;9.312;2022-08-01T14:42:01;1.65;;;1.20;;
18172;SDS011;9211;48.818;9.312;2022-08-01T14:44:28;2.80;;;1.30;;
18172;SDS011;9211;48.818;9.312;2022-08-01T14:46:58;2.50;;;1.35;;
18172;SDS011;9211;48.818;9.312;2022-08-01T14:49:26;2.10;;;1.30;;
18172;SDS011;9211;48.818;9.312;2022-08-01T14:51:54;2.37;;;1.40;;
18172;SDS011;9211;48.818;9.312;2022-08-01T14:54:21;2.60;;;1.40;;
18172;SDS011;9211;48.818;9.312;2022-08-01T14:56:48;3.40;;;1.50;;
18172;SDS011;9211;48.818;9.312;2022-08-01T14:59:17;3.60;;;1.30;;
18172;SDS011;9211;48.818;9.312;2022-08-01T15:01:44;2.45;;;1.38;;
18172;SDS011;9211;48.818;9.312;2022-08-01T15:04:11;1.65;;;1.20;;
18172;SDS011;9211;48.818;9.312;2022-08-01T15:06:40;2.30;;;1.30;;
18172;SDS011;9211;48.818;9.312;2022-08-01T15:09:07;3.80;;;1.23;;
18172;SDS011;9211;48.818;9.312;2022-08-01T15:11:35;3.67;;;1.40;;
18172;SDS011;9211;48.818;9.312;2022-08-01T15:14:02;1.85;;;1.30;;
18172;SDS011;9211;48.818;9.312;2022-08-01T15:16:47;1.85;;;1.38;;
18172;SDS011;9211;48.818;9.312;2022-08-01T15:19:14;2.60;;;1.42;;
18172;SDS011;9211;48.818;9.312;2022-08-01T15:21:44;2.83;;;1.35;;
18172;SDS011;9211;48.818;9.312;2022-08-01T15:24:11;1.90;;;1.30;;
18172;SDS011;9211;48.818;9.312;2022-08-01T15:26:38;2.35;;;1.25;;
18172;SDS011;9211;48.818;9.312;2022-08-01T15:29:05;1.90;;;1.30;;
18172;SDS011;9211;48.818;9.312;2022-08-01T15:31:32;2.05;;;1.35;;
18172;SDS011;9211;48.818;9.312;2022-08-01T15:33:59;3.97;;;1.40;;
18172;SDS011;9211;48.818;9.312;2022-08-01T15:36:26;2.08;;;1.30;;